الصفحة الرئيسية
METAR-TAF:

METAR-TAF

مطار :

هونغ كونغ, جمهورية الصين الشعبية

مطار هونغ كونغ الدولي

دائرة عرض: 22-19N, خط طول: 113-55E, ارتفاع: 9 متر

مراقبة الطقس الحالي

تاريخ ووقت الإصدار 20 دقيقة قبل الساعة 07:00UTC
ريح 7 عقدة من الغرب/الجنوب الغربي, الاتجاه يتراوح بين الجنوب/الجنوب الغربي و الغرب
درجة الحرارة 21°درجة مئوية
الرطوبة 78%
ضغط 1016 hPa
الرؤية: 6000 متر
غيوم قليلة على ارتفاع 1200 قدم
غيوم متفرقة على ارتفاع 3500 قدم

METAR: VHHH 190700Z 24007KT 200V260 6000 FEW012 SCT035 21/17 Q1016 TEMPO 4000 BR -RA

زمن: 15:20 (07:20 UTC)

توقعات

تاريخ ووقت الإصدار 22 دقيقة قبل الساعة 06:58UTC
التوقعات صالحة من19 الساعة 07 UTC إلى 20 الساعة 12 UTC
ريح 10 عقدة من الشرق
الرؤية: 7000 متر
غيوم قليلة على ارتفاع 1400 قدم
غيوم متفرقة على ارتفاع 3500 قدم
مؤقت
من 19 الساعة 07 UTC إلى 19 الساعة 12 UTC
ريح 5 عقدة من الغرب/الجنوب الغربي
الرؤية: 4000 متر
غشاء, مطر خفيف

TAF: VHHH 190658Z 1907/2012 08010KT 7000 FEW014 SCT035 TX21/1907Z TX22/2007Z TN18/1923Z TEMPO 1907/1912 24005KT 4000 BR -RA

أرصاد الطقس والتوقعات من أكثر من 4000 مطار (تقارير الطقس للمطار METAR والتنبؤ بالطقس بالمطارTAF).

المحطات المتاحة هي النقط الصفراء والحمراء على الخريطة.

حرك المؤشر فوق النقطة لمعرفة اسم المحطة.

ثم انقر لمعرفة أرصاد وتوقعات الطقس.

لتغيير الخارطة: اضغط على الأزرار الخضراء مع رمز الصليب الأسود للتكبير. على الزر الأخضر مع شرطة للتصغير، أو على الأسهم الخضراء للخرائط المجاورة.


METAR-TAF: